Time;durP1;ratioP1;P1;durP2;ratioP2;P2;SDS_P1;SDS_P2;PMS_P1;PMS_P2;Temp;Humidity;BMP_temperature;BMP_pressure;BME280_temperature;BME280_humidity;BME280_pressure;Samples;Min_cycle;Max_cycle;Signal;HPM_P1;HPM_P2
2022/08/11 00:01:07;;;;;;;4.68;2.28;;;;;;;22.94;65.27;102257.78;5122026;27;20574;-62
2022/08/11 00:03:35;;;;;;;5.40;2.20;;;;;;;22.88;65.49;102256.69;5126984;27;20055;-60
2022/08/11 00:06:10;;;;;;;4.53;2.25;;;;;;;22.86;65.60;102260.59;5116310;27;20090;-61
2022/08/11 00:08:37;;;;;;;4.18;2.38;;;;;;;22.83;65.85;102252.94;5113720;27;20440;-60
2022/08/11 00:11:06;;;;;;;2.75;2.10;;;;;;;22.78;66.90;102247.34;5105147;27;20058;-61
2022/08/11 00:13:39;;;;;;;3.78;2.00;;;;;;;22.73;67.09;102244.44;5113300;27;20538;-60
2022/08/11 00:16:13;;;;;;;4.28;2.08;;;;;;;22.70;66.91;102249.13;5102576;27;20055;-61
2022/08/11 00:18:46;;;;;;;3.15;2.00;;;;;;;22.68;66.94;102253.03;5115011;27;20127;-62
2022/08/11 00:21:13;;;;;;;4.57;2.22;;;;;;;22.62;67.13;102254.63;5120264;27;20039;-61
2022/08/11 00:23:42;;;;;;;5.47;2.17;;;;;;;22.59;67.41;102259.53;5113629;27;20051;-61
2022/08/11 00:26:10;;;;;;;4.82;2.15;;;;;;;22.54;67.56;102246.72;5117155;27;20409;-61
2022/08/11 00:28:37;;;;;;;;;;;;;;;22.54;67.83;102254.72;5107574;27;20043;-61
2022/08/11 00:31:06;;;;;;;4.13;2.17;;;;;;;22.51;67.45;102263.16;5115768;27;20729;-61
2022/08/11 00:33:38;;;;;;;5.47;2.55;;;;;;;22.51;67.49;102260.47;5109029;27;20419;-62
2022/08/11 00:36:14;;;;;;;4.90;2.20;;;;;;;22.44;68.79;102256.91;5121295;27;20055;-62
2022/08/11 00:38:43;;;;;;;6.40;2.35;;;;;;;22.41;69.02;102249.28;5107684;27;20050;-62
2022/08/11 00:41:31;;;;;;;5.45;2.15;;;;;;;22.34;69.20;102251.88;5107446;27;20048;-62
2022/08/11 00:44:22;;;;;;;3.22;2.20;;;;;;;22.28;69.61;102261.47;5110799;27;20051;-62
2022/08/11 00:46:58;;;;;;;4.85;2.15;;;;;;;22.26;69.25;102257.34;5118057;27;20426;-61
2022/08/11 00:50:00;;;;;;;4.60;2.20;;;;;;;22.26;69.88;102262.69;5108996;27;20044;-62
2022/08/11 00:52:57;;;;;;;5.97;2.20;;;;;;;22.24;69.98;102270.03;5112144;27;20050;-62
2022/08/11 00:56:04;;;;;;;5.22;2.30;;;;;;;22.19;70.55;102265.28;5108138;27;20043;-62
2022/08/11 00:58:39;;;;;;;3.50;2.55;;;;;;;22.16;71.13;102270.16;5100158;27;20039;-62
2022/08/11 01:01:15;;;;;;;2.70;2.20;;;;;;;22.13;70.77;102263.34;5124973;27;20047;-61
2022/08/11 01:04:19;;;;;;;4.35;1.98;;;;;;;22.10;70.56;102261.88;5112618;27;20528;-62
2022/08/11 01:07:08;;;;;;;5.63;2.40;;;;;;;22.08;70.85;102261.22;5125614;27;20051;-61
2022/08/11 01:10:02;;;;;;;5.43;2.17;;;;;;;22.04;71.35;102262.63;5105122;27;20048;-61
2022/08/11 01:12:41;;;;;;;7.47;2.30;;;;;;;22.03;71.09;102260.13;5117871;27;20085;-60
2022/08/11 01:15:38;;;;;;;4.97;2.40;;;;;;;22.05;71.10;102258.09;5110595;27;20055;-61
2022/08/11 01:18:23;;;;;;;3.37;2.10;;;;;;;21.98;72.33;102258.03;5133833;27;20051;-62
2022/08/11 01:21:21;;;;;;;8.02;2.30;;;;;;;21.95;71.85;102257.56;5111594;27;20078;-62
2022/08/11 01:24:25;;;;;;;5.65;2.22;;;;;;;21.94;71.32;102255.94;5112821;27;20055;-61
2022/08/11 01:27:11;;;;;;;3.65;2.30;;;;;;;21.90;72.43;102250.13;5116578;27;20780;-63
2022/08/11 01:30:10;;;;;;;5.95;2.47;;;;;;;21.89;71.93;102260.00;5121250;27;20403;-61
2022/08/11 01:33:11;;;;;;;4.85;2.05;;;;;;;21.89;72.03;102260.00;5113892;27;20058;-61
2022/08/11 01:36:29;;;;;;;4.07;2.13;;;;;;;21.84;73.11;102251.69;5116355;27;20425;-61
2022/08/11 01:39:11;;;;;;;6.65;2.30;;;;;;;21.82;73.30;102250.25;5101675;27;20055;-61
2022/08/11 01:45:07;;;;;;;5.35;2.40;;;;;;;21.72;74.35;102250.53;5108894;28;20506;-60
2022/08/11 01:47:52;;;;;;;6.03;2.65;;;;;;;21.67;74.81;102253.72;5109133;27;20052;-61
2022/08/11 01:50:23;;;;;;;4.28;2.20;;;;;;;21.60;74.94;102251.97;5120652;27;20132;-60
2022/08/11 01:53:05;;;;;;;4.57;2.20;;;;;;;21.56;75.70;102256.88;5112334;27;20055;-60
2022/08/11 01:55:56;;;;;;;4.43;2.17;;;;;;;21.56;75.17;102251.56;5115879;27;20548;-61
2022/08/11 01:58:41;;;;;;;3.50;2.30;;;;;;;21.53;74.89;102255.41;5120292;27;20043;-61
2022/08/11 02:01:49;;;;;;;4.82;2.42;;;;;;;21.49;75.40;102262.13;5117833;27;20047;-60
2022/08/11 02:04:33;;;;;;;6.22;2.28;;;;;;;21.49;75.58;102261.31;5118635;27;20047;-61
2022/08/11 02:07:09;;;;;;;4.82;2.30;;;;;;;21.47;75.56;102261.47;5121810;27;20523;-61
2022/08/11 02:09:44;;;;;;;8.30;2.40;;;;;;;21.43;75.33;102264.69;5118793;27;20050;-61
2022/08/11 02:12:43;;;;;;;4.20;2.30;;;;;;;21.39;75.71;102261.53;5118189;27;20047;-61
2022/08/11 02:15:33;;;;;;;6.43;2.40;;;;;;;21.40;73.61;102260.50;5115133;27;20511;-61
2022/08/11 02:18:14;;;;;;;4.57;2.22;;;;;;;21.38;75.25;102262.53;5110418;27;20055;-62
2022/08/11 02:23:54;;;;;;;4.50;2.15;;;;;;;21.34;76.81;102255.91;5103557;27;20594;-61
2022/08/11 02:26:47;;;;;;;5.28;2.08;;;;;;;21.31;76.31;102254.44;5108498;27;20480;-61
2022/08/11 02:29:45;;;;;;;5.22;2.13;;;;;;;21.31;77.08;102251.78;5109121;27;20043;-61
2022/08/11 02:35:41;;;;;;;9.05;2.30;;;;;;;21.26;77.25;102246.16;5115023;27;20054;-61
2022/08/11 02:38:15;;;;;;;7.72;2.28;;;;;;;21.21;77.96;102253.03;5112179;27;20518;-61
2022/08/11 02:41:02;;;;;;;4.88;2.45;;;;;;;21.20;77.50;102252.22;5116226;27;20054;-61
2022/08/11 02:43:44;;;;;;;4.13;2.50;;;;;;;21.16;78.22;102244.78;5111794;27;20051;-62
2022/08/11 02:46:30;;;;;;;3.92;2.15;;;;;;;21.17;77.98;102246.41;5110373;27;20051;-61
2022/08/11 02:52:18;;;;;;;4.50;2.40;;;;;;;21.07;79.19;102246.66;5112091;28;20055;-61
2022/08/11 02:54:55;;;;;;;6.57;2.15;;;;;;;21.05;77.03;102251.34;5125158;28;20051;-61
2022/08/11 02:57:36;;;;;;;5.07;2.10;;;;;;;21.03;78.67;102248.91;5115798;28;20047;-61
2022/08/11 03:00:11;;;;;;;4.43;2.15;;;;;;;21.01;79.29;102250.91;5109642;28;20047;-61
2022/08/11 03:03:19;;;;;;;6.60;2.15;;;;;;;21.02;78.80;102241.06;5100861;28;20051;-63
2022/08/11 03:06:05;;;;;;;6.35;2.85;;;;;;;21.00;78.70;102243.09;5099783;28;20423;-61
2022/08/11 03:08:52;;;;;;;3.03;2.05;;;;;;;20.96;78.95;102242.63;5109580;28;20047;-62
2022/08/11 03:17:31;;;;;;;6.40;2.53;;;;;;;20.91;80.55;102245.00;5117786;28;20083;-61
2022/08/11 03:20:30;;;;;;;5.20;2.45;;;;;;;20.86;80.71;102244.72;5126555;27;20491;-61
2022/08/11 03:23:22;;;;;;;7.40;2.40;;;;;;;20.82;81.04;102243.41;5121738;28;20122;-61
2022/08/11 03:26:16;;;;;;;5.78;2.47;;;;;;;20.82;81.36;102240.75;5104953;28;20043;-61
2022/08/11 03:29:00;;;;;;;5.78;2.80;;;;;;;20.76;82.01;102246.78;5072690;27;20504;-60
2022/08/11 03:31:33;;;;;;;5.05;2.80;;;;;;;20.70;80.96;102241.19;5116463;27;20062;-61
2022/08/11 03:34:06;;;;;;;6.30;2.50;;;;;;;20.66;83.20;102249.69;5111214;27;20044;-59
2022/08/11 03:36:52;;;;;;;5.10;2.60;;;;;;;20.63;82.33;102245.56;5109244;28;20058;-61
2022/08/11 03:40:02;;;;;;;3.88;2.72;;;;;;;20.61;83.58;102252.09;5104388;28;20526;-61
2022/08/11 03:43:06;;;;;;;5.88;3.35;;;;;;;20.55;83.90;102245.59;5115191;27;20509;-61
2022/08/11 03:45:59;;;;;;;6.05;2.85;;;;;;;20.56;83.64;102241.91;5109994;28;20061;-61
2022/08/11 03:48:41;;;;;;;4.82;2.50;;;;;;;20.55;83.57;102246.41;5103567;28;20039;-63
2022/08/11 03:51:28;;;;;;;6.78;2.72;;;;;;;20.54;83.56;102243.91;5115770;28;20439;-61
2022/08/11 03:54:32;;;;;;;5.88;3.15;;;;;;;20.51;85.15;102244.28;5095922;28;20059;-63
2022/08/11 03:57:07;;;;;;;5.05;2.85;;;;;;;20.50;85.27;102246.13;5102175;28;20051;-62
2022/08/11 04:00:12;;;;;;;4.25;2.30;;;;;;;20.48;85.68;102245.47;5105912;27;20125;-61
2022/08/11 04:03:16;;;;;;;5.05;2.80;;;;;;;20.42;86.84;102248.00;5128967;27;20043;-61
2022/08/11 04:06:06;;;;;;;4.38;2.60;;;;;;;20.38;85.90;102241.38;5113477;27;20047;-61
2022/08/11 04:09:22;;;;;;;5.35;2.95;;;;;;;20.32;86.63;102242.91;5118624;27;20048;-61
2022/08/11 04:12:10;;;;;;;3.38;2.42;;;;;;;20.31;86.04;102238.59;5054432;27;20062;-61
2022/08/11 04:18:27;;;;;;;4.32;2.83;;;;;;;20.23;87.12;102231.50;5116647;27;20153;-61
2022/08/11 04:21:18;;;;;;;4.97;2.88;;;;;;;20.28;86.60;102233.63;5110847;27;20054;-61
2022/08/11 04:24:23;;;;;;;6.18;2.88;;;;;;;20.26;87.56;102227.63;5105879;27;20055;-61
2022/08/11 04:27:31;;;;;;;9.13;2.70;;;;;;;20.23;87.43;102231.50;5109880;27;20163;-61
2022/08/11 04:30:16;;;;;;;7.05;3.10;;;;;;;20.21;88.23;102232.66;5101474;27;20139;-61
2022/08/11 04:32:57;;;;;;;;;;;;;;;20.20;87.76;102231.81;5128066;27;20054;-61
2022/08/11 04:35:42;;;;;;;5.82;3.35;;;;;;;20.20;88.38;102233.66;5116759;27;19923;-61
2022/08/11 04:38:48;;;;;;;6.07;3.03;;;;;;;20.18;88.99;102233.00;5123266;27;20042;-60
2022/08/11 04:43:19;;;;;;;5.38;3.20;;;;;;;20.13;88.69;102225.53;5103737;27;20622;-61
2022/08/11 04:44:41;;;;;;;6.10;3.20;;;;;;;20.12;87.13;102218.56;5122469;27;20423;-61
2022/08/11 05:03:16;;;;;;;6.05;3.10;;;;;;;20.10;88.34;102234.72;5105407;27;20126;-60
2022/08/11 05:06:01;;;;;;;7.35;3.15;;;;;;;20.11;89.02;102231.06;5084472;27;20486;-61
2022/08/11 05:09:01;;;;;;;6.93;3.03;;;;;;;20.13;90.07;102236.19;5113272;27;20053;-61
2022/08/11 05:11:58;;;;;;;9.75;3.10;;;;;;;20.13;90.01;102233.53;5124099;27;20046;-61
2022/08/11 05:35:03;;;;;;;10.50;3.13;;;;;;;20.26;91.55;102243.63;5122554;27;20054;-61
2022/08/11 05:37:33;;;;;;;9.98;3.30;;;;;;;20.25;90.56;102239.31;5106596;27;20105;-61
2022/08/11 05:57:25;;;;;;;6.90;3.20;;;;;;;20.38;91.87;102255.53;5110573;27;20082;-61
2022/08/11 06:00:13;;;;;;;12.07;4.13;;;;;;;20.40;91.61;102253.50;5107960;27;20060;-61
2022/08/11 06:03:02;;;;;;;6.55;3.28;;;;;;;20.39;90.69;102245.72;5103066;27;20066;-61
2022/08/11 06:05:34;;;;;;;6.63;3.17;;;;;;;20.45;91.14;102250.34;5102954;28;20055;-61
2022/08/11 06:08:11;;;;;;;10.13;3.45;;;;;;;20.45;90.66;102251.16;5112743;27;20051;-61
2022/08/11 06:10:40;;;;;;;7.97;3.53;;;;;;;20.49;89.54;102254.31;5119965;27;20091;-61
2022/08/11 06:13:08;;;;;;;7.95;3.92;;;;;;;20.49;89.54;102257.78;5111777;27;20039;-61
2022/08/11 06:15:44;;;;;;;6.57;4.32;;;;;;;20.55;85.82;102256.25;5104826;27;20047;-60
2022/08/11 06:18:12;;;;;;;5.60;3.30;;;;;;;20.54;89.24;102255.44;5119724;27;20699;-61
2022/08/11 06:20:46;;;;;;;11.55;3.60;;;;;;;20.59;90.30;102254.06;5124356;27;20055;-62
2022/08/11 06:23:17;;;;;;;7.28;3.53;;;;;;;20.58;90.11;102250.56;5110058;27;20050;-61
2022/08/11 06:25:44;;;;;;;6.90;3.30;;;;;;;20.63;87.16;102255.41;5128896;27;20051;-61
2022/08/11 06:28:12;;;;;;;5.10;3.25;;;;;;;20.63;87.81;102248.22;5107537;27;20250;-61
2022/08/11 06:30:47;;;;;;;11.23;3.40;;;;;;;20.70;84.68;102259.03;5116951;27;20207;-60
2022/08/11 06:33:20;;;;;;;7.10;3.50;;;;;;;20.72;85.86;102255.16;5111588;27;20057;-61
2022/08/11 06:36:11;;;;;;;7.18;3.22;;;;;;;20.78;86.36;102261.63;5103758;27;20059;-61
2022/08/11 06:38:53;;;;;;;8.05;3.70;;;;;;;20.85;83.61;102259.03;5122190;27;20422;-61
2022/08/11 06:41:30;;;;;;;6.78;3.53;;;;;;;20.88;82.96;102266.69;5105103;27;20051;-61
2022/08/11 06:44:15;;;;;;;7.82;3.63;;;;;;;20.89;82.53;102271.84;5113551;27;20048;-61
2022/08/11 06:46:49;;;;;;;9.18;3.70;;;;;;;20.91;83.48;102269.00;5104495;27;20546;-61
2022/08/11 06:52:08;;;;;;;3.58;2.58;;;;;;;21.05;79.11;102270.88;5099628;28;20138;-61
2022/08/11 06:55:04;;;;;;;6.90;3.60;;;;;;;21.05;82.83;102262.03;5107321;27;20051;-61
2022/08/11 07:00:27;;;;;;;8.82;3.80;;;;;;;21.13;83.55;102270.81;5121477;28;20047;-60
2022/08/11 07:03:07;;;;;;;8.32;3.83;;;;;;;21.22;81.93;102262.72;5119544;28;20054;-62
2022/08/11 07:05:52;;;;;;;4.57;3.20;;;;;;;21.25;83.20;102265.84;5121522;27;20050;-61
2022/08/11 07:16:57;;;;;;;7.50;3.78;;;;;;;21.45;80.33;102260.00;5101460;28;19946;-61
2022/08/11 07:30:40;;;;;;;4.57;2.83;;;;;;;21.72;75.83;102258.53;5125034;28;20047;-60
2022/08/11 07:33:09;;;;;;;6.90;3.67;;;;;;;21.76;77.92;102251.81;5117444;27;20047;-61
2022/08/11 07:35:51;;;;;;;4.90;3.15;;;;;;;21.89;77.19;102253.81;5121102;27;20054;-61
2022/08/11 07:38:43;;;;;;;5.13;3.22;;;;;;;21.97;75.79;102263.56;5116971;27;20045;-61
2022/08/11 07:41:14;;;;;;;4.20;2.63;;;;;;;22.00;74.96;102253.31;5118537;27;20538;-63
2022/08/11 07:43:43;;;;;;;6.18;2.92;;;;;;;22.04;76.62;102259.94;5117223;27;20051;-62
2022/08/11 07:54:29;;;;;;;8.18;4.40;;;;;;;22.29;75.94;102254.31;5123965;27;20039;-63
2022/08/11 07:56:59;;;;;;;4.55;2.88;;;;;;;22.34;74.24;102251.88;5113300;27;20051;-62
2022/08/11 08:19:05;;;;;;;7.25;3.30;;;;;;;23.01;72.98;102241.75;5119281;27;20061;-60
2022/08/11 08:21:31;;;;;;;4.22;2.85;;;;;;;23.30;70.50;102238.06;5114072;27;20261;-61
2022/08/11 08:23:59;;;;;;;9.10;3.30;;;;;;;23.67;69.82;102242.19;5126209;27;20086;-61
2022/08/11 08:32:05;;;;;;;8.30;3.33;;;;;;;24.90;67.01;102233.19;5118102;27;20044;-61
2022/08/11 08:34:34;;;;;;;4.65;3.17;;;;;;;25.32;65.55;102236.44;5124056;27;20492;-60
2022/08/11 08:37:01;;;;;;;;;;;;;;;25.69;64.70;102239.41;5104508;27;20506;-60
2022/08/11 08:39:44;;;;;;;6.85;2.97;;;;;;;26.10;62.23;102237.41;5122491;27;20294;-61
2022/08/11 08:42:16;;;;;;;5.65;3.05;;;;;;;26.46;60.29;102238.59;5104156;27;20047;-61
2022/08/11 08:44:46;;;;;;;4.68;2.88;;;;;;;26.81;59.45;102230.88;5110470;27;20491;-60
2022/08/11 08:47:15;;;;;;;5.20;2.58;;;;;;;27.14;58.92;102238.66;5115128;27;20051;-61
2022/08/11 08:50:07;;;;;;;5.07;2.80;;;;;;;27.45;58.17;102244.16;5121293;27;20081;-60
2022/08/11 08:52:41;;;;;;;6.25;3.00;;;;;;;27.70;55.67;102234.09;5118597;27;20035;-61
2022/08/11 08:55:16;;;;;;;3.67;2.72;;;;;;;27.96;56.06;102235.66;5120404;27;20043;-61
2022/08/11 08:57:44;;;;;;;7.30;3.17;;;;;;;28.24;55.48;102231.50;5103965;27;20047;-61
2022/08/11 09:00:14;;;;;;;6.47;3.15;;;;;;;28.45;53.35;102232.84;5103812;27;20069;-61
2022/08/11 09:02:48;;;;;;;5.30;2.80;;;;;;;28.63;53.39;102233.84;5122685;27;20043;-61
2022/08/11 09:05:17;;;;;;;9.35;3.10;;;;;;;28.91;52.97;102241.22;5114317;27;20078;-61
2022/08/11 09:07:46;;;;;;;6.63;3.10;;;;;;;29.05;51.54;102228.31;5123976;27;20055;-61
2022/08/11 09:10:16;;;;;;;5.53;2.88;;;;;;;29.20;50.93;102241.38;5104724;27;20081;-61
2022/08/11 09:12:42;;;;;;;6.28;3.05;;;;;;;29.38;51.76;102238.50;5118144;27;20071;-61
2022/08/11 09:15:12;;;;;;;3.80;2.47;;;;;;;29.62;52.31;102239.28;5118992;27;20051;-62
2022/08/11 09:17:41;;;;;;;4.80;2.67;;;;;;;29.82;49.84;102240.75;5100262;27;20043;-62
2022/08/11 09:20:16;;;;;;;4.68;2.83;;;;;;;30.04;49.74;102232.78;5115390;27;20074;-61
2022/08/11 09:28:41;;;;;;;4.35;3.03;;;;;;;30.62;47.72;102230.75;5117876;27;20455;-60
2022/08/11 09:31:10;;;;;;;6.93;3.17;;;;;;;30.73;48.03;102227.16;5120006;27;20051;-61
2022/08/11 09:33:40;;;;;;;7.60;2.67;;;;;;;30.95;47.34;102221.81;5101373;27;20443;-61
2022/08/11 09:41:43;;;;;;;7.25;3.22;;;;;;;31.55;45.59;102217.44;5118962;27;20491;-61
2022/08/11 09:44:46;;;;;;;5.45;2.92;;;;;;;31.70;45.20;102219.50;5109887;27;20163;-62
2022/08/11 09:47:20;;;;;;;5.60;2.72;;;;;;;31.86;44.04;102206.91;5114346;27;20107;-60
2022/08/11 09:49:49;;;;;;;7.25;3.03;;;;;;;31.95;44.06;102202.63;5116584;27;20501;-61
2022/08/11 09:52:17;;;;;;;5.80;3.00;;;;;;;32.17;44.23;102212.63;5122351;27;20503;-62
2022/08/11 09:54:46;;;;;;;5.90;2.53;;;;;;;32.23;44.72;102201.56;5110342;27;20053;-62
2022/08/11 10:00:08;;;;;;;7.13;3.25;;;;;;;32.59;43.75;102198.31;5100146;28;20126;-63
2022/08/11 10:02:50;;;;;;;6.28;3.10;;;;;;;32.70;42.38;102202.75;5102115;27;20427;-62
2022/08/11 10:08:07;;;;;;;3.30;2.65;;;;;;;32.88;42.12;102187.88;5115989;27;20043;-62
2022/08/11 10:10:39;;;;;;;4.60;2.75;;;;;;;32.96;41.75;102187.38;5112028;27;20043;-61
2022/08/11 10:13:08;;;;;;;4.25;2.75;;;;;;;33.16;41.62;102189.38;5102736;27;20422;-61
2022/08/11 10:15:58;;;;;;;5.82;2.70;;;;;;;33.20;42.06;102197.84;5119555;27;20119;-62
2022/08/11 10:18:52;;;;;;;11.68;2.67;;;;;;;33.15;40.94;102185.06;5112806;27;20042;-61
2022/08/11 10:21:36;;;;;;;;;;;;;;;33.23;41.34;102181.81;5106613;27;20046;-61
2022/08/11 10:26:57;;;;;;;5.40;2.92;;;;;;;33.56;40.92;102184.34;5110800;27;20047;-62
2022/08/11 10:35:25;;;;;;;7.07;2.50;;;;;;;33.96;40.96;102177.34;5111206;27;20748;-62
2022/08/11 10:37:53;;;;;;;5.90;2.58;;;;;;;34.06;41.26;102182.78;5108838;27;20578;-62
2022/08/11 10:40:37;;;;;;;5.70;2.20;;;;;;;34.16;39.65;102182.81;5103231;27;20055;-62
2022/08/11 10:43:12;;;;;;;5.93;2.30;;;;;;;34.20;40.29;102181.16;5110837;27;20059;-62
2022/08/11 10:48:33;;;;;;;5.00;2.75;;;;;;;34.38;40.08;102181.69;5110487;27;20047;-61
2022/08/11 10:51:12;;;;;;;8.63;2.70;;;;;;;34.37;39.69;102172.72;5109057;27;20039;-61
2022/08/11 10:59:26;;;;;;;8.20;2.60;;;;;;;34.74;39.02;102162.59;5106993;28;20071;-62
2022/08/11 11:01:53;;;;;;;5.30;2.47;;;;;;;34.82;38.05;102159.28;5116363;28;20475;-62
2022/08/11 11:04:27;;;;;;;4.53;2.13;;;;;;;35.04;39.22;102154.25;5123290;28;20130;-62
2022/08/11 11:07:06;;;;;;;5.00;2.28;;;;;;;35.25;37.13;102154.19;5106521;28;20689;-62
2022/08/11 11:10:00;;;;;;;4.93;2.28;;;;;;;35.39;37.79;102147.00;5111788;27;20047;-62
2022/08/11 11:18:14;;;;;;;5.47;2.40;;;;;;;35.75;36.70;102140.50;5106331;27;20506;-61
2022/08/11 11:20:49;;;;;;;5.43;2.45;;;;;;;35.71;37.12;102140.25;5120397;27;20051;-61
2022/08/11 11:23:39;;;;;;;4.75;2.17;;;;;;;35.84;36.58;102133.34;5109322;27;20047;-62
2022/08/11 11:26:23;;;;;;;6.30;2.50;;;;;;;35.91;36.07;102136.56;5118287;27;20049;-61
2022/08/11 11:29:05;;;;;;;6.50;2.50;;;;;;;35.79;34.62;102134.19;5102296;28;20047;-62
2022/08/11 11:32:04;;;;;;;5.57;2.50;;;;;;;35.84;34.99;102117.75;5106509;28;20051;-63
2022/08/11 11:35:09;;;;;;;6.22;2.47;;;;;;;36.12;36.13;102122.69;5103071;27;20047;-61
2022/08/11 11:37:37;;;;;;;3.45;2.40;;;;;;;36.06;35.61;102123.84;5116808;27;20061;-61
2022/08/11 11:40:15;;;;;;;4.50;2.28;;;;;;;36.05;34.00;102125.78;5113423;27;20059;-62
2022/08/11 11:42:47;;;;;;;4.25;2.38;;;;;;;36.14;38.58;102120.47;5120984;27;20050;-61
2022/08/11 11:45:17;;;;;;;6.32;2.35;;;;;;;36.36;35.47;102117.28;5107955;27;20047;-61
2022/08/11 11:47:52;;;;;;;3.40;2.17;;;;;;;36.58;35.08;102119.50;5120722;27;20061;-61
2022/08/11 11:50:26;;;;;;;4.72;2.20;;;;;;;36.72;34.11;102127.81;5125590;27;20051;-61
2022/08/11 11:53:00;;;;;;;4.30;2.17;;;;;;;36.56;33.52;102118.97;5127739;27;20039;-62
2022/08/11 11:55:28;;;;;;;7.38;2.30;;;;;;;36.60;33.91;102125.47;5122827;27;20503;-62
2022/08/11 12:03:33;;;;;;;5.15;2.15;;;;;;;36.77;34.15;102109.44;5115077;27;20051;-62
2022/08/11 12:06:01;;;;;;;4.50;2.22;;;;;;;36.69;34.52;102110.06;5123155;27;20082;-62
2022/08/11 12:08:28;;;;;;;4.82;2.45;;;;;;;36.84;33.39;102108.25;5101134;27;20055;-61
2022/08/11 12:13:49;;;;;;;4.20;2.20;;;;;;;37.03;34.97;102105.53;5110642;27;20407;-61
2022/08/11 12:16:18;;;;;;;3.67;1.83;;;;;;;37.19;33.75;102096.84;5114653;27;20657;-62
2022/08/11 12:19:05;;;;;;;3.28;2.30;;;;;;;37.24;33.52;102092.38;5107138;27;20086;-61
2022/08/11 12:21:33;;;;;;;10.25;2.55;;;;;;;36.78;31.92;102091.91;5115486;27;20052;-62
2022/08/11 12:29:46;;;;;;;4.72;2.00;;;;;;;37.17;32.74;102076.38;5109470;27;20474;-61
2022/08/11 12:32:25;;;;;;;4.10;2.13;;;;;;;37.20;32.72;102079.28;5103634;27;20610;-61
2022/08/11 12:34:52;;;;;;;5.65;2.40;;;;;;;37.37;32.88;102076.03;5127847;27;20050;-61
2022/08/11 12:37:22;;;;;;;3.35;2.10;;;;;;;37.24;32.13;102060.38;5114542;27;20130;-61
2022/08/11 12:46:07;;;;;;;3.72;2.20;;;;;;;37.25;33.07;102056.53;5112347;27;20048;-61
2022/08/11 12:54:56;;;;;;;2.35;2.15;;;;;;;37.72;32.36;102054.66;5112530;27;20488;-62
2022/08/11 13:05:59;;;;;;;6.28;2.30;;;;;;;38.14;32.81;102035.56;5113214;27;20054;-62
2022/08/11 13:08:28;;;;;;;4.40;1.90;;;;;;;38.16;31.87;102039.59;5111474;27;20058;-62
2022/08/11 13:13:43;;;;;;;2.58;2.08;;;;;;;38.16;32.43;102031.38;5124016;27;20052;-62
2022/08/11 13:17:20;;;;;;;3.65;2.20;;;;;;;38.16;32.02;102027.84;5122090;27;20612;-62
2022/08/11 13:19:24;;;;;;;6.45;2.08;;;;;;;38.07;31.66;102030.50;5112129;27;20055;-62
2022/08/11 13:21:51;;;;;;;5.65;2.30;;;;;;;38.16;32.06;102020.44;5104237;27;20051;-63
2022/08/11 13:24:20;;;;;;;2.97;2.42;;;;;;;38.11;31.92;102025.22;5106532;27;20423;-60
2022/08/11 13:26:49;;;;;;;3.25;2.00;;;;;;;38.14;31.78;102017.19;5114571;27;20078;-62
2022/08/11 13:29:18;;;;;;;4.88;2.20;;;;;;;38.12;31.76;102011.19;5107543;27;20051;-62
2022/08/11 13:31:46;;;;;;;6.97;2.25;;;;;;;38.26;32.15;102019.41;5124852;27;20062;-62
2022/08/11 13:34:15;;;;;;;5.88;2.70;;;;;;;38.25;32.83;102019.72;5116282;27;20050;-61
2022/08/11 13:36:42;;;;;;;4.70;2.08;;;;;;;38.31;33.80;102022.06;5122166;27;20492;-61
2022/08/11 13:39:09;;;;;;;5.90;2.33;;;;;;;38.36;32.05;102010.16;5111989;27;20043;-63
2022/08/11 13:41:38;;;;;;;5.15;2.28;;;;;;;38.34;32.60;102009.66;5116268;27;20057;-61
2022/08/11 13:44:06;;;;;;;3.55;2.10;;;;;;;38.39;32.93;102009.56;5106579;27;20040;-61
2022/08/11 13:46:33;;;;;;;6.22;2.28;;;;;;;38.44;32.25;102005.88;5106730;27;20051;-62
2022/08/11 13:49:01;;;;;;;5.45;2.30;;;;;;;38.51;32.12;101998.06;5108013;27;20079;-63
2022/08/11 13:51:31;;;;;;;4.07;2.22;;;;;;;38.43;31.87;101994.13;5105553;27;20406;-62
2022/08/11 13:54:09;;;;;;;8.52;3.10;;;;;;;38.41;32.00;101993.63;5108376;27;20546;-62
2022/08/11 13:56:45;;;;;;;3.83;2.63;;;;;;;38.49;32.95;101997.56;5121530;27;20051;-62
2022/08/11 13:59:14;;;;;;;4.72;2.50;;;;;;;38.51;32.11;101987.09;5112217;27;20144;-60
2022/08/11 14:01:47;;;;;;;5.90;2.22;;;;;;;38.50;31.46;101986.28;5119522;27;20106;-62
2022/08/11 14:04:44;;;;;;;3.65;2.42;;;;;;;38.54;32.08;101984.59;5103019;27;20050;-60
2022/08/11 14:07:13;;;;;;;7.55;2.13;;;;;;;38.53;32.43;101990.38;5108683;27;20066;-62
2022/08/11 14:09:43;;;;;;;6.65;2.30;;;;;;;38.57;32.11;101985.88;5111579;27;20062;-62
2022/08/11 14:15:29;;;;;;;3.17;1.92;;;;;;;38.52;31.79;101988.69;5107848;27;20053;-61
2022/08/11 14:18:03;;;;;;;4.45;2.28;;;;;;;38.56;31.34;101981.53;5118216;27;20154;-61
2022/08/11 14:22:05;;;;;;;2.63;2.13;;;;;;;38.67;32.39;101984.84;5104707;27;20054;-62
2022/08/11 14:23:26;;;;;;;2.85;2.28;;;;;;;38.72;32.47;101982.00;5127072;27;20039;-61
2022/08/11 14:28:40;;;;;;;7.13;2.10;;;;;;;38.74;31.16;101972.31;5117454;27;20060;-61
2022/08/11 14:31:13;;;;;;;5.30;2.20;;;;;;;38.72;32.79;101971.03;5100496;27;20269;-61
2022/08/11 14:33:40;;;;;;;6.00;2.17;;;;;;;38.75;31.67;101967.66;5110597;27;20043;-62
2022/08/11 14:36:33;;;;;;;5.35;2.20;;;;;;;38.63;31.16;101967.41;5110489;27;20107;-63
2022/08/11 14:39:02;;;;;;;13.70;2.60;;;;;;;38.64;31.08;101969.03;5099477;27;20060;-62
2022/08/11 14:47:22;;;;;;;5.85;2.30;;;;;;;38.62;31.38;101968.50;5110321;27;20058;-62
2022/08/11 14:49:54;;;;;;;4.22;2.25;;;;;;;38.64;31.37;101964.34;5106165;27;20051;-61
2022/08/11 14:52:37;;;;;;;3.50;2.25;;;;;;;38.40;30.22;101969.25;5120282;27;20047;-61
2022/08/11 14:57:51;;;;;;;6.28;2.20;;;;;;;38.50;30.60;101961.63;5106865;27;20059;-61
2022/08/11 15:00:32;;;;;;;3.22;2.08;;;;;;;38.59;32.91;101955.44;5113806;28;20100;-61
2022/08/11 15:03:11;;;;;;;6.28;2.47;;;;;;;38.70;30.92;101943.91;5114644;28;20078;-62
2022/08/11 15:05:46;;;;;;;4.35;1.95;;;;;;;38.51;30.44;101949.53;5107493;28;20093;-62
2022/08/11 15:14:00;;;;;;;6.82;2.40;;;;;;;38.40;31.75;101942.66;5119225;28;20040;-62
2022/08/11 15:19:14;;;;;;;;;;;;;;;38.44;30.62;101945.59;5111850;28;20496;-61
2022/08/11 15:24:26;;;;;;;6.30;2.20;;;;;;;38.32;30.83;101935.19;5106040;28;20059;-61
2022/08/11 15:38:10;;;;;;;4.07;2.00;;;;;;;38.05;30.86;101917.66;5105473;28;20079;-61
2022/08/11 15:46:18;;;;;;;3.67;2.08;;;;;;;38.00;30.81;101915.03;5104901;28;20061;-61
2022/08/11 15:48:50;;;;;;;4.65;1.80;;;;;;;37.99;31.30;101910.69;5116191;27;20047;-62
2022/08/11 15:51:38;;;;;;;4.15;1.95;;;;;;;38.03;32.06;101905.38;5102553;28;20058;-61
2022/08/11 15:54:10;;;;;;;3.47;1.90;;;;;;;37.98;31.39;101903.56;5115453;27;20062;-62
2022/08/11 15:56:40;;;;;;;6.90;2.20;;;;;;;37.83;31.28;101909.38;5120069;27;20043;-62
2022/08/11 16:04:54;;;;;;;7.95;2.10;;;;;;;37.65;30.42;101903.69;5105579;27;20054;-62
2022/08/11 16:07:26;;;;;;;6.60;2.28;;;;;;;37.65;30.97;101892.75;5118817;27;20047;-62
2022/08/11 16:09:58;;;;;;;3.88;2.10;;;;;;;37.48;30.99;101892.50;5108774;27;20051;-63
2022/08/11 16:12:34;;;;;;;6.25;2.30;;;;;;;37.36;31.08;101898.50;5122660;27;20055;-62
2022/08/11 16:17:59;;;;;;;4.43;2.00;;;;;;;37.22;31.42;101886.72;5090934;27;20051;-62
2022/08/11 16:20:29;;;;;;;3.75;2.05;;;;;;;37.21;31.47;101877.72;5112713;27;20509;-61
2022/08/11 16:23:02;;;;;;;3.17;1.65;;;;;;;37.20;32.14;101879.63;5114757;27;20054;-62
2022/08/11 16:25:33;;;;;;;3.58;2.20;;;;;;;37.09;31.56;101886.38;5116802;27;20501;-62
2022/08/11 16:28:21;;;;;;;6.22;2.20;;;;;;;37.12;31.97;101893.16;5110994;27;20054;-62
2022/08/11 16:30:49;;;;;;;5.75;2.20;;;;;;;36.96;31.21;101887.16;5114638;27;20047;-62
2022/08/11 16:33:17;;;;;;;3.95;2.20;;;;;;;36.94;31.98;101889.38;5103259;27;20061;-62
2022/08/11 16:38:52;;;;;;;3.78;2.20;;;;;;;36.83;32.53;101883.25;5112773;27;20050;-62
2022/08/11 16:47:08;;;;;;;5.67;2.20;;;;;;;36.59;31.74;101883.38;5113600;27;20047;-62
2022/08/11 16:49:38;;;;;;;4.38;1.90;;;;;;;36.55;33.32;101885.88;5110148;27;20047;-62
2022/08/11 16:52:10;;;;;;;4.00;1.90;;;;;;;36.42;32.34;101883.88;5120369;27;20051;-62